Stuart, FL

6:20 PM EDT on September 02, 2014 (GMT -0400)
Witham | Change Station
CLOSE
Current Station
Airport
Location: Stuart,
Elevation: 20 ft
Nearby Weather Stations

Elev 20 ft 27.18 °N, 80.22 °W | Updated 33 minutes ago

Scattered Clouds
Scattered Clouds
84 °F
Feels Like 91 °F
N
13
Wind Variable Wind from ESE

Today
High -- | Low -- °F
--% Chance of Precip.
Yesterday
High -- | Low -- °F
Precip. -- in
7:00 AM 7:40 PM
First Quarter, 55% visible
Pressure 30.02 in
Visibility 7.0 miles
Clouds Scattered Clouds 3000 ft
Heat Index 91 °F
Dew Point 73 °F
Humidity 70%
Rainfall 0.00 in
Snow Depth Not available.
UV 2 out of 12
Pollen 5.30 out of 12
Air Quality Not available.
Flu Activity Not available.
METAR KSUA 022147Z 11011KT 7SM SCT030 29/23 A3002

More Conditions Fewer Conditions

Pressure 30.02 in
Visibility 7.0 miles
Clouds Scattered Clouds 3000 ft
Heat Index 91 °F
Dew Point 73 °F
Humidity 70%
Rainfall 0.00 in
Snow Depth Not available.
UV 2 out of 12
Pollen 5.30 out of 12
Air Quality Not available.
Flu Activity Not available.
METAR KSUA 022147Z 11011KT 7SM SCT030 29/23 A3002

More Conditions Fewer Conditions

10-Day Weather Forecast

Almanac

Astronomy

Sep. 02, 2014 Rise Set
Actual Time 7:00 AM EDT 7:40 PM EDT
Civil Twilight 6:37 AM EDT 8:03 PM EDT
Nautical Twilight 6:09 AM EDT 8:31 PM EDT
Astronomical Twilight 5:40 AM EDT 8:59 PM EDT
Moon 2:05 PM EDT 12:17 AM EDT
Length of Visible Light 13h 26m
Length of Day
12h 39m
Tomorrow will be 1m 33s shorter.
First Quarter, 55% of the Moon is Illuminated
Today
First Quarter
Sep 8
Full
Sep 15
Last Quarter
Sep 24
New
Oct 1
First Quarter

Today's Extremes

State Highs State Lows

Community

WunderPhotos

Upload Photos

1,749,788 photos uploaded!

Nearby

Snow Depth

Station Depth Elevation
No new snow has been reported.

Earthquake Activity

City Distance Mag. Time & Date
No recent earthquake activity has been reported nearby.
Minimum magnitude displayed is 2.5.

Coastal Water Temperatures

Place Temperature
Lake Worth, FL 87.1 °F
Trident Pier, FL 87.1 °F
Virginia Key, FL 88.0 °F

Nearby Weather Stations